Time;durP1;ratioP1;P1;durP2;ratioP2;P2;SDS_P1;SDS_P2;PMS_P1;PMS_P2;Temp;Humidity;BMP_temperature;BMP_pressure;BME280_temperature;BME280_humidity;BME280_pressure;Samples;Min_cycle;Max_cycle;Signal;HPM_P1;HPM_P2
2021/03/14 00:00:08;;;;;;;2.60;1.00;;;;;;;1.79;93.05;95034.13;4918709;29;20481;-78
2021/03/14 00:02:34;;;;;;;2.03;0.90;;;;;;;1.79;92.87;95038.50;4896518;29;20856;-78
2021/03/14 00:04:59;;;;;;;1.83;0.57;;;;;;;1.77;92.79;95033.44;4910566;29;20484;-78
2021/03/14 00:07:25;;;;;;;2.83;0.93;;;;;;;1.77;93.06;95014.47;4895207;29;20091;-78
2021/03/14 00:09:51;;;;;;;1.83;0.60;;;;;;;1.78;92.96;95003.16;4896602;29;20035;-78
2021/03/14 00:12:16;;;;;;;1.07;0.60;;;;;;;1.73;92.67;95003.56;4893954;29;20023;-78
2021/03/14 00:14:42;;;;;;;0.77;0.50;;;;;;;1.78;92.78;95010.94;4908996;29;20023;-78
2021/03/14 00:17:08;;;;;;;1.83;0.60;;;;;;;1.79;92.38;95023.75;4895690;29;20031;-78
2021/03/14 00:19:34;;;;;;;1.87;0.50;;;;;;;1.75;92.36;95039.72;4904504;29;20043;-78
2021/03/14 00:22:00;;;;;;;3.47;0.80;;;;;;;1.70;92.82;95044.47;4922299;29;20173;-78
2021/03/14 00:24:26;;;;;;;2.63;0.80;;;;;;;1.79;92.48;95046.28;4935238;29;20463;-78
2021/03/14 00:26:51;;;;;;;4.40;0.70;;;;;;;1.73;92.18;95054.56;4922198;29;20027;-78
2021/03/14 00:29:17;;;;;;;2.40;0.80;;;;;;;1.73;92.70;95047.63;4899135;29;20031;-78
2021/03/14 00:31:43;;;;;;;2.13;0.50;;;;;;;1.77;92.40;95053.34;4914957;29;20070;-78
2021/03/14 00:34:08;;;;;;;2.40;0.70;;;;;;;1.78;92.26;95047.22;4913114;29;20051;-78
2021/03/14 00:36:34;;;;;;;5.77;1.27;;;;;;;1.77;92.32;95050.75;4910558;29;20042;-78
2021/03/14 00:39:00;;;;;;;2.27;0.73;;;;;;;1.72;92.13;95051.16;4926777;29;20031;-78
2021/03/14 00:41:25;;;;;;;1.30;0.60;;;;;;;1.73;91.98;95050.22;4908373;29;20514;-78
2021/03/14 00:43:51;;;;;;;2.33;0.50;;;;;;;1.73;92.25;95057.97;4906181;29;20035;-78
2021/03/14 00:46:17;;;;;;;1.70;0.60;;;;;;;1.75;91.91;95052.69;4918060;29;20102;-78
2021/03/14 00:48:45;;;;;;;2.00;0.60;;;;;;;1.72;92.05;95060.72;4924829;29;20027;-78
2021/03/14 00:51:11;;;;;;;2.23;1.70;;;;;;;1.70;92.09;95053.06;4906854;29;20462;-77
2021/03/14 00:53:41;;;;;;;3.90;0.60;;;;;;;1.75;91.95;95057.88;4911618;29;20370;-77
2021/03/14 00:56:16;;;;;;;1.87;0.53;;;;;;;1.73;92.02;95059.75;4910552;29;20550;-77
2021/03/14 00:58:42;;;;;;;0.67;0.40;;;;;;;1.71;92.13;95066.84;4928696;29;20493;-77
2021/03/14 01:01:09;;;;;;;1.00;0.40;;;;;;;1.71;92.05;95064.25;4941421;29;20467;-76
2021/03/14 01:03:38;;;;;;;1.30;0.57;;;;;;;1.74;92.56;95063.97;4930286;29;20498;-77
2021/03/14 01:06:04;;;;;;;2.07;0.67;;;;;;;1.68;92.03;95062.75;4913964;29;20476;-77
2021/03/14 01:08:31;;;;;;;2.80;0.70;;;;;;;1.70;92.87;95080.75;4923450;29;20475;-77
2021/03/14 01:10:57;;;;;;;1.67;0.30;;;;;;;1.72;92.07;95060.72;4910119;29;20039;-77
2021/03/14 01:13:49;;;;;;;1.03;0.33;;;;;;;1.67;92.18;95062.88;4931288;29;20456;-77
2021/03/14 01:16:16;;;;;;;0.40;0.27;;;;;;;1.66;92.09;95064.66;4919179;29;20534;-77
2021/03/14 01:18:42;;;;;;;2.07;0.30;;;;;;;1.67;91.80;95078.44;4907616;29;20538;-77
2021/03/14 01:21:08;;;;;;;1.37;0.30;;;;;;;1.66;91.92;95064.66;4900552;29;20036;-77
2021/03/14 01:23:34;;;;;;;1.50;0.43;;;;;;;1.65;92.08;95065.63;4910575;29;20053;-78
2021/03/14 01:26:00;;;;;;;0.97;0.30;;;;;;;1.59;91.74;95050.59;4898345;29;20309;-77
2021/03/14 01:28:26;;;;;;;2.53;0.30;;;;;;;1.56;91.50;95056.84;4911140;29;20589;-76
2021/03/14 01:30:51;;;;;;;1.80;0.40;;;;;;;1.50;91.92;95062.56;4909168;29;20066;-77
2021/03/14 01:33:17;;;;;;;1.43;0.40;;;;;;;1.48;92.15;95076.63;4913042;29;20049;-76
2021/03/14 01:35:43;;;;;;;1.03;0.47;;;;;;;1.38;92.43;95086.97;4902625;29;20039;-77
2021/03/14 01:38:08;;;;;;;0.97;0.53;;;;;;;1.39;92.50;95083.41;4898003;29;20103;-77
2021/03/14 01:40:35;;;;;;;0.13;0.13;;;;;;;1.35;92.91;95093.22;4881945;29;20034;-77
2021/03/14 01:43:01;;;;;;;0.67;0.20;;;;;;;1.35;92.46;95084.63;4927969;29;20047;-76
2021/03/14 01:45:27;;;;;;;1.67;0.23;;;;;;;1.34;92.77;95091.59;4907094;29;20609;-77
2021/03/14 01:47:53;;;;;;;2.30;0.60;;;;;;;1.29;92.51;95082.56;4910785;29;20043;-77
2021/03/14 01:50:26;;;;;;;2.17;0.50;;;;;;;1.18;93.03;95086.88;4911669;29;20040;-77
2021/03/14 01:52:52;;;;;;;2.20;0.50;;;;;;;1.25;92.76;95091.53;4897324;29;20472;-78
2021/03/14 01:55:20;;;;;;;0.53;0.30;;;;;;;1.12;92.76;95095.16;4921615;29;20459;-77
2021/03/14 01:57:46;;;;;;;0.80;0.40;;;;;;;1.11;92.94;95093.53;4908184;29;20555;-77
2021/03/14 02:00:15;;;;;;;0.30;0.30;;;;;;;1.09;93.72;95085.06;4926167;29;20482;-78
2021/03/14 02:02:41;;;;;;;0.63;0.40;;;;;;;1.12;93.15;95084.00;4907864;29;20444;-78
2021/03/14 02:05:09;;;;;;;1.33;0.47;;;;;;;1.08;93.45;95090.38;4920585;29;20511;-77
2021/03/14 02:07:38;;;;;;;1.27;0.50;;;;;;;1.10;94.00;95089.28;4927861;29;20478;-77
2021/03/14 02:10:05;;;;;;;1.13;0.57;;;;;;;1.10;93.18;95085.88;4906033;29;20468;-77
2021/03/14 02:12:38;;;;;;;1.73;0.70;;;;;;;1.08;93.58;95092.97;4922143;29;20859;-77
2021/03/14 02:15:06;;;;;;;1.50;0.70;;;;;;;0.99;93.59;95091.97;4916321;29;20448;-77
2021/03/14 02:17:35;;;;;;;4.07;1.20;;;;;;;0.98;93.70;95095.50;4924564;29;20036;-78
2021/03/14 02:20:06;;;;;;;1.00;0.60;;;;;;;0.97;93.42;95100.78;4933024;29;20494;-78
2021/03/14 02:22:32;;;;;;;0.80;0.50;;;;;;;1.00;93.25;95092.78;4930743;29;20481;-78
2021/03/14 02:25:02;;;;;;;0.60;0.30;;;;;;;0.93;93.20;95105.41;4901037;29;21067;-78
2021/03/14 02:27:28;;;;;;;1.93;0.57;;;;;;;0.98;93.36;95116.22;4894978;29;20472;-77
2021/03/14 02:29:55;;;;;;;0.53;0.40;;;;;;;0.81;93.81;95115.03;4913583;29;20451;-77
2021/03/14 02:32:22;;;;;;;1.70;0.40;;;;;;;0.88;93.43;95115.34;4910974;29;20448;-77
2021/03/14 02:34:56;;;;;;;1.23;0.60;;;;;;;0.89;94.00;95116.97;4906282;29;20826;-77
2021/03/14 02:37:23;;;;;;;1.40;0.60;;;;;;;0.88;93.66;95110.97;4916071;29;20479;-77
2021/03/14 02:39:54;;;;;;;0.97;0.53;;;;;;;0.85;93.87;95115.59;4897980;29;20115;-77
2021/03/14 02:42:22;;;;;;;1.00;0.60;;;;;;;0.86;93.64;95122.41;4892629;29;20472;-77
2021/03/14 02:44:50;;;;;;;1.60;0.60;;;;;;;0.79;94.32;95126.44;4916884;29;20467;-78
2021/03/14 02:47:21;;;;;;;1.03;0.70;;;;;;;0.74;94.18;95118.22;4899998;29;20520;-77
2021/03/14 02:49:50;;;;;;;1.50;0.90;;;;;;;0.72;94.65;95120.16;4911785;29;20803;-77
2021/03/14 02:52:17;;;;;;;1.90;1.13;;;;;;;0.72;94.29;95120.97;4897448;29;20456;-78
2021/03/14 02:54:45;;;;;;;1.70;0.97;;;;;;;0.63;94.36;95127.69;4932580;29;20837;-77
2021/03/14 02:57:12;;;;;;;1.70;0.90;;;;;;;0.71;94.39;95134.84;4925973;29;20455;-77
2021/03/14 02:59:40;;;;;;;1.00;0.70;;;;;;;0.69;94.52;95132.38;4882000;29;20484;-78
2021/03/14 03:02:07;;;;;;;1.00;0.80;;;;;;;0.66;94.67;95130.03;4911304;29;20478;-77
2021/03/14 03:04:33;;;;;;;1.20;0.80;;;;;;;0.69;94.49;95137.56;4917580;29;20480;-77
2021/03/14 03:06:59;;;;;;;1.40;0.70;;;;;;;0.65;94.25;95141.34;4904215;29;20527;-77
2021/03/14 03:09:26;;;;;;;1.87;1.03;;;;;;;0.68;94.28;95148.84;4899826;29;20464;-77
2021/03/14 03:11:55;;;;;;;1.63;1.33;;;;;;;0.67;94.18;95155.00;4913834;29;20447;-77
2021/03/14 03:14:24;;;;;;;1.57;0.77;;;;;;;0.67;94.25;95160.16;4939153;29;20466;-77
2021/03/14 03:16:52;;;;;;;1.37;0.57;;;;;;;0.70;94.50;95162.50;4933362;29;20584;-77
2021/03/14 03:19:20;;;;;;;1.90;1.00;;;;;;;0.73;93.61;95168.34;4925980;29;20874;-77
2021/03/14 03:21:46;;;;;;;1.17;0.90;;;;;;;0.59;93.87;95177.25;4930276;29;20471;-77
2021/03/14 03:24:13;;;;;;;1.43;0.80;;;;;;;0.56;94.49;95180.88;4912649;29;20459;-77
2021/03/14 03:26:41;;;;;;;1.47;0.90;;;;;;;0.54;94.15;95169.88;4883381;29;20471;-77
2021/03/14 03:29:08;;;;;;;1.30;0.80;;;;;;;0.54;94.24;95180.22;4911453;29;20487;-77
2021/03/14 03:31:34;;;;;;;1.30;0.80;;;;;;;0.49;94.34;95182.34;4922231;29;20456;-77
2021/03/14 03:34:00;;;;;;;1.60;0.83;;;;;;;0.45;94.20;95193.88;4909049;29;20448;-77
2021/03/14 03:36:26;;;;;;;1.43;0.70;;;;;;;0.44;94.53;95200.81;4905377;29;20864;-77
2021/03/14 03:38:52;;;;;;;1.20;0.90;;;;;;;0.43;94.92;95190.56;4904135;29;20482;-77
2021/03/14 03:41:17;;;;;;;1.80;0.90;;;;;;;0.38;94.93;95197.91;4888205;29;20083;-77
2021/03/14 03:43:44;;;;;;;1.47;0.93;;;;;;;0.37;94.64;95196.22;4891679;29;20063;-77
2021/03/14 03:46:15;;;;;;;1.33;0.97;;;;;;;0.37;95.09;95204.00;4911545;29;20046;-77
2021/03/14 03:48:57;;;;;;;1.93;1.10;;;;;;;0.31;94.93;95204.50;4915300;29;20503;-77
2021/03/14 03:51:26;;;;;;;0.90;0.70;;;;;;;0.31;95.00;95214.84;4898680;29;20484;-77
2021/03/14 03:53:54;;;;;;;1.30;0.70;;;;;;;0.33;95.01;95225.88;4904941;29;20459;-77
2021/03/14 03:56:21;;;;;;;1.47;1.07;;;;;;;0.37;94.55;95227.28;4899515;29;20475;-77
2021/03/14 03:58:48;;;;;;;2.47;0.70;;;;;;;0.37;94.55;95230.69;4930432;29;21050;-76
2021/03/14 04:01:15;;;;;;;2.80;1.03;;;;;;;0.36;94.78;95238.56;4926969;29;20874;-77
2021/03/14 04:03:44;;;;;;;1.23;0.90;;;;;;;0.38;94.53;95244.44;4897634;29;20479;-77
2021/03/14 04:06:11;;;;;;;2.17;1.10;;;;;;;0.40;94.38;95250.31;4914887;29;20475;-77
2021/03/14 04:08:39;;;;;;;1.90;1.10;;;;;;;0.42;94.78;95261.38;4903096;29;20480;-77
2021/03/14 04:11:06;;;;;;;2.00;1.03;;;;;;;0.42;94.54;95257.00;4909566;29;20548;-77
2021/03/14 04:13:34;;;;;;;3.30;1.20;;;;;;;0.43;94.70;95271.56;4904220;29;20467;-79
2021/03/14 04:16:02;;;;;;;3.07;1.23;;;;;;;0.44;94.79;95272.41;4914052;29;20475;-77
2021/03/14 04:18:29;;;;;;;2.57;1.33;;;;;;;0.48;94.63;95273.81;4901422;29;20464;-77
2021/03/14 04:20:56;;;;;;;5.13;2.10;;;;;;;0.51;94.49;95285.69;4899230;29;20463;-77
2021/03/14 04:23:23;;;;;;;3.67;1.50;;;;;;;0.53;94.26;95286.38;4898521;29;20460;-77
2021/03/14 04:25:56;;;;;;;6.83;1.90;;;;;;;0.52;94.79;95293.31;4897186;29;20480;-77
2021/03/14 04:28:29;;;;;;;11.45;2.83;;;;;;;0.56;94.26;95299.88;4911181;29;20845;-77
2021/03/14 04:30:56;;;;;;;3.78;1.80;;;;;;;0.59;94.09;95311.78;4907051;29;20102;-77
2021/03/14 04:33:23;;;;;;;3.47;1.90;;;;;;;0.57;94.00;95316.22;4931398;29;20028;-77
2021/03/14 04:35:50;;;;;;;4.43;1.70;;;;;;;0.57;94.28;95324.84;4911596;29;20813;-77
2021/03/14 04:38:19;;;;;;;5.40;1.80;;;;;;;0.57;94.67;95319.66;4903555;29;20460;-77
2021/03/14 04:40:46;;;;;;;4.50;1.87;;;;;;;0.58;94.57;95316.13;4897105;29;20554;-77
2021/03/14 04:43:12;;;;;;;5.87;2.20;;;;;;;0.55;94.68;95328.47;4927060;29;20562;-77
2021/03/14 04:45:39;;;;;;;4.37;1.70;;;;;;;0.62;94.16;95333.03;4888912;29;20491;-77
2021/03/14 04:48:05;;;;;;;3.37;1.93;;;;;;;0.60;94.14;95332.34;4901848;29;20559;-77
2021/03/14 04:50:31;;;;;;;3.17;1.50;;;;;;;0.66;93.85;95341.38;4907507;29;20479;-77
2021/03/14 04:53:02;;;;;;;4.53;1.67;;;;;;;0.60;93.80;95340.09;4906398;29;21056;-77
2021/03/14 04:55:34;;;;;;;3.20;1.70;;;;;;;0.62;93.81;95343.41;4898136;29;20476;-77
2021/03/14 04:58:01;;;;;;;2.83;1.60;;;;;;;0.60;94.12;95347.84;4902301;29;20460;-77
2021/03/14 05:00:28;;;;;;;7.00;2.03;;;;;;;0.57;93.98;95352.44;4904587;29;20458;-77
2021/03/14 05:03:00;;;;;;;4.50;1.80;;;;;;;0.60;93.25;95347.84;4906417;29;20566;-77
2021/03/14 05:05:26;;;;;;;4.10;1.50;;;;;;;0.58;93.05;95352.34;4923243;29;21393;-77
2021/03/14 05:07:52;;;;;;;5.30;1.87;;;;;;;0.57;93.54;95362.78;4899427;29;20530;-77
2021/03/14 05:10:20;;;;;;;3.40;1.80;;;;;;;0.60;93.26;95363.38;4932108;29;20490;-77
2021/03/14 05:12:48;;;;;;;3.13;1.97;;;;;;;0.58;93.81;95367.06;4923479;29;20475;-77
2021/03/14 05:15:16;;;;;;;4.93;2.10;;;;;;;0.58;93.77;95370.47;4901339;29;20468;-77
2021/03/14 05:17:44;;;;;;;4.97;1.80;;;;;;;0.54;93.74;95387.16;4910739;29;20467;-77
2021/03/14 05:20:14;;;;;;;4.23;1.80;;;;;;;0.60;93.45;95386.66;4923407;29;20828;-77
2021/03/14 05:22:42;;;;;;;5.53;2.20;;;;;;;0.58;93.58;95378.22;4918703;29;20779;-77
2021/03/14 05:25:09;;;;;;;5.60;1.93;;;;;;;0.58;93.69;95388.56;4936609;29;20790;-78
2021/03/14 05:27:36;;;;;;;5.83;1.70;;;;;;;0.64;93.75;95393.28;4905541;29;20487;-77
2021/03/14 05:30:04;;;;;;;6.30;2.07;;;;;;;0.63;93.64;95391.59;4929519;29;20452;-77
2021/03/14 05:32:31;;;;;;;5.13;2.23;;;;;;;0.62;93.71;95402.91;4899911;29;20490;-77
2021/03/14 05:34:56;;;;;;;5.83;2.13;;;;;;;0.68;93.69;95402.44;4916093;29;20459;-77
2021/03/14 05:37:23;;;;;;;6.20;2.30;;;;;;;0.68;93.37;95407.59;4917377;29;20563;-77
2021/03/14 05:39:51;;;;;;;4.70;2.23;;;;;;;0.66;93.37;95411.25;4921072;29;20134;-77
2021/03/14 05:42:17;;;;;;;6.23;2.53;;;;;;;0.66;93.63;95409.47;4912036;29;20558;-77
2021/03/14 05:44:45;;;;;;;3.37;2.27;;;;;;;0.68;93.64;95420.53;4912520;29;20439;-77
2021/03/14 05:47:11;;;;;;;4.03;1.90;;;;;;;0.69;93.20;95424.78;4918128;29;20467;-77
2021/03/14 05:49:37;;;;;;;5.37;2.30;;;;;;;0.76;93.77;95427.72;4924703;29;20456;-77
2021/03/14 05:52:05;;;;;;;5.30;2.37;;;;;;;0.69;93.15;95432.53;4908621;29;20040;-77
2021/03/14 05:54:32;;;;;;;4.60;2.23;;;;;;;0.70;93.70;95433.34;4925695;29;20093;-76
2021/03/14 05:57:01;;;;;;;5.30;2.03;;;;;;;0.76;93.77;95439.81;4932114;29;21047;-77
2021/03/14 05:59:29;;;;;;;6.33;2.70;;;;;;;0.75;93.32;95441.59;4920991;29;20586;-77
2021/03/14 06:01:57;;;;;;;6.70;2.97;;;;;;;0.78;93.56;95443.13;4935851;29;20481;-77
2021/03/14 06:04:23;;;;;;;8.00;2.37;;;;;;;0.75;93.40;95445.97;4921861;29;21011;-77
2021/03/14 06:06:49;;;;;;;7.00;2.60;;;;;;;0.70;93.19;95447.13;4902905;29;20467;-77
2021/03/14 06:09:16;;;;;;;5.73;2.67;;;;;;;0.77;93.82;95455.25;4897940;29;21311;-77
2021/03/14 06:11:42;;;;;;;5.10;2.23;;;;;;;0.80;93.32;95455.00;4921261;29;20035;-77
2021/03/14 06:14:08;;;;;;;4.73;2.17;;;;;;;0.80;92.96;95459.34;4925814;29;20462;-77
2021/03/14 06:16:35;;;;;;;4.97;2.43;;;;;;;0.83;93.45;95469.47;4917003;29;20035;-77
2021/03/14 06:19:01;;;;;;;4.07;2.07;;;;;;;0.81;93.15;95474.78;4922795;29;20471;-77
2021/03/14 06:21:30;;;;;;;7.30;2.60;;;;;;;0.89;93.12;95474.16;4915361;29;20467;-78
2021/03/14 06:24:03;;;;;;;3.90;2.00;;;;;;;0.84;92.93;95477.13;4926927;29;20500;-77
2021/03/14 06:26:31;;;;;;;5.28;2.30;;;;;;;0.85;92.76;95483.13;4898116;29;20480;-77
2021/03/14 06:28:57;;;;;;;8.53;2.83;;;;;;;0.86;92.64;95483.00;4906376;29;20060;-77
2021/03/14 06:31:24;;;;;;;6.60;3.17;;;;;;;0.87;93.15;95491.56;4932564;29;20480;-77
2021/03/14 06:33:50;;;;;;;10.23;6.50;;;;;;;0.86;92.70;95495.13;4918023;29;20028;-77
2021/03/14 06:36:21;;;;;;;4.77;2.20;;;;;;;0.83;93.04;95501.34;4919867;29;21124;-77
2021/03/14 06:38:48;;;;;;;6.30;2.60;;;;;;;0.82;92.75;95504.06;4913647;29;20996;-78
2021/03/14 06:41:19;;;;;;;6.23;2.47;;;;;;;0.77;93.30;95504.44;4919616;29;20532;-77
2021/03/14 06:43:49;;;;;;;6.20;2.10;;;;;;;0.85;92.66;95514.19;4906424;29;20858;-77
2021/03/14 06:46:22;;;;;;;8.00;2.60;;;;;;;0.85;93.03;95514.19;4913169;29;21024;-77
2021/03/14 06:49:03;;;;;;;7.97;2.03;;;;;;;0.88;92.83;95524.31;4921949;29;20478;-77
2021/03/14 06:51:46;;;;;;;6.40;2.47;;;;;;;0.91;92.92;95524.06;4922893;29;20119;-77
2021/03/14 06:54:25;;;;;;;5.43;2.50;;;;;;;0.87;93.33;95539.03;4932348;29;20528;-77
2021/03/14 06:57:17;;;;;;;5.30;2.10;;;;;;;0.83;93.01;95542.75;4900383;29;20114;-77
2021/03/14 06:59:49;;;;;;;4.47;2.10;;;;;;;0.90;93.34;95548.28;4909251;29;20474;-77
2021/03/14 07:02:22;;;;;;;7.97;2.67;;;;;;;0.90;92.93;95556.06;4923628;29;20483;-77
2021/03/14 07:04:53;;;;;;;4.55;1.85;;;;;;;0.93;92.98;95558.41;4911233;29;20483;-77
2021/03/14 07:07:23;;;;;;;5.57;2.00;;;;;;;1.01;93.17;95558.66;4908221;29;20035;-77
2021/03/14 07:10:04;;;;;;;5.80;2.50;;;;;;;1.09;92.81;95564.06;4887552;29;20554;-77
2021/03/14 07:12:43;;;;;;;6.80;2.87;;;;;;;1.06;92.55;95568.66;4917619;29;20480;-77
2021/03/14 07:15:16;;;;;;;3.67;1.90;;;;;;;1.18;92.18;95572.91;4908806;29;20452;-77
2021/03/14 07:17:49;;;;;;;6.03;1.88;;;;;;;1.06;92.79;95585.03;4930612;29;20471;-77
2021/03/14 07:20:18;;;;;;;5.23;1.80;;;;;;;0.99;92.81;95585.63;4913734;29;20047;-77
2021/03/14 07:23:30;;;;;;;5.87;1.90;;;;;;;0.87;93.13;95597.69;4918583;29;20456;-77
2021/03/14 07:25:56;;;;;;;7.13;2.80;;;;;;;0.79;92.77;95594.88;4864112;29;21384;-77
2021/03/14 07:28:23;;;;;;;4.87;1.87;;;;;;;0.85;93.40;95604.78;4911006;29;20468;-77
2021/03/14 07:30:50;;;;;;;4.13;1.77;;;;;;;0.80;92.87;95612.88;4908081;29;20101;-77
2021/03/14 07:33:17;;;;;;;7.27;2.20;;;;;;;0.83;92.80;95620.41;4920991;29;20436;-77
2021/03/14 07:35:44;;;;;;;4.63;1.60;;;;;;;0.83;93.15;95629.94;4906884;29;20531;-77
2021/03/14 07:38:11;;;;;;;5.37;1.83;;;;;;;0.94;93.08;95633.38;4893300;29;20476;-77
2021/03/14 07:40:37;;;;;;;5.13;2.00;;;;;;;0.86;92.99;95635.72;4910321;29;20550;-77
2021/03/14 07:43:03;;;;;;;2.80;1.73;;;;;;;0.96;92.66;95635.84;4909450;29;20463;-77
2021/03/14 07:45:31;;;;;;;4.50;2.23;;;;;;;0.98;92.87;95639.16;4908311;29;20488;-77
2021/03/14 07:47:58;;;;;;;5.17;1.90;;;;;;;1.03;92.80;95642.22;4927225;29;20464;-78
2021/03/14 07:50:27;;;;;;;6.83;2.13;;;;;;;1.13;92.26;95645.75;4915285;29;20988;-77
2021/03/14 07:53:07;;;;;;;3.70;2.23;;;;;;;1.05;92.43;95647.28;4933047;29;20514;-76
2021/03/14 07:55:33;;;;;;;4.93;1.80;;;;;;;1.06;92.71;95647.16;4906934;29;20498;-77
2021/03/14 07:57:58;;;;;;;5.70;2.07;;;;;;;1.08;92.63;95653.06;4915275;29;20471;-77
2021/03/14 08:00:27;;;;;;;7.50;3.17;;;;;;;1.18;92.82;95658.38;4914092;29;20455;-77
2021/03/14 08:02:53;;;;;;;9.07;4.63;;;;;;;1.17;92.01;95661.88;4919660;29;20032;-77
2021/03/14 08:05:39;;;;;;;7.23;2.40;;;;;;;1.18;92.32;95661.78;4908969;29;20488;-77
2021/03/14 08:08:06;;;;;;;5.37;1.97;;;;;;;1.24;92.08;95673.47;4904524;29;20478;-77
2021/03/14 08:10:45;;;;;;;8.33;3.60;;;;;;;1.29;92.36;95678.28;4919182;29;20432;-78
2021/03/14 08:13:16;;;;;;;5.23;2.60;;;;;;;1.29;92.27;95671.34;4907989;29;20456;-78
2021/03/14 08:15:43;;;;;;;5.27;2.07;;;;;;;1.35;91.34;95681.22;4928093;29;20448;-76
2021/03/14 08:18:46;;;;;;;5.10;2.30;;;;;;;1.76;91.92;95684.19;4926575;29;21031;-77
2021/03/14 08:21:21;;;;;;;6.03;2.10;;;;;;;1.92;90.23;95687.25;4902897;29;20467;-76
2021/03/14 08:23:50;;;;;;;7.37;2.30;;;;;;;1.88;89.80;95689.25;4913985;29;20980;-76
2021/03/14 08:26:20;;;;;;;8.20;2.60;;;;;;;1.87;89.91;95686.75;4926413;29;20467;-76
2021/03/14 08:28:54;;;;;;;6.83;2.30;;;;;;;1.56;89.41;95698.69;4897977;29;21312;-77
2021/03/14 08:31:36;;;;;;;8.57;2.37;;;;;;;1.45;90.01;95709.03;4917052;29;20479;-76
2021/03/14 08:34:07;;;;;;;8.80;2.80;;;;;;;1.26;91.02;95719.94;4889968;29;20487;-77
2021/03/14 08:36:41;;;;;;;6.57;2.33;;;;;;;1.15;90.90;95721.56;4908603;29;20480;-77
2021/03/14 08:39:27;;;;;;;11.77;3.20;;;;;;;1.20;91.50;95723.00;4914036;29;20989;-77
2021/03/14 08:42:02;;;;;;;8.37;2.80;;;;;;;1.29;91.25;95727.50;4901556;29;20036;-77
2021/03/14 08:44:45;;;;;;;5.45;2.33;;;;;;;1.29;90.82;95719.72;4910414;29;20478;-77
2021/03/14 08:47:25;;;;;;;9.43;2.90;;;;;;;1.69;90.06;95722.72;4919636;29;20091;-77
2021/03/14 08:50:01;;;;;;;5.83;1.93;;;;;;;2.02;88.82;95718.47;4914778;29;21040;-78
2021/03/14 08:52:32;;;;;;;8.53;2.03;;;;;;;2.48;87.64;95720.00;4905191;29;20491;-78
2021/03/14 08:55:13;;;;;;;8.77;2.70;;;;;;;2.62;87.15;95724.94;4896439;29;20579;-77
2021/03/14 08:57:39;;;;;;;6.70;2.27;;;;;;;2.80;85.12;95727.81;4921648;29;20551;-77
2021/03/14 09:00:07;;;;;;;9.00;2.10;;;;;;;2.59;85.07;95732.97;4903361;29;20040;-77
2021/03/14 09:02:45;;;;;;;5.27;2.37;;;;;;;2.66;86.13;95723.75;4913042;29;20480;-78
2021/03/14 09:05:23;;;;;;;6.47;1.93;;;;;;;2.90;85.62;95723.53;4899262;29;20483;-77
2021/03/14 09:08:00;;;;;;;9.43;2.27;;;;;;;2.95;84.26;95721.41;4927003;29;21056;-77
2021/03/14 09:10:35;;;;;;;5.77;2.27;;;;;;;2.78;84.56;95722.78;4898522;29;20483;-78
2021/03/14 09:13:26;;;;;;;9.00;1.97;;;;;;;3.07;85.21;95725.56;4902635;29;20569;-77
2021/03/14 09:16:04;;;;;;;7.67;2.53;;;;;;;3.43;84.25;95728.69;4895050;29;20559;-77
2021/03/14 09:18:50;;;;;;;7.73;1.90;;;;;;;3.66;83.32;95718.16;4927669;29;20464;-78
2021/03/14 09:21:18;;;;;;;5.80;2.07;;;;;;;3.78;81.68;95722.31;4910161;29;20448;-78
2021/03/14 09:23:50;;;;;;;6.20;1.97;;;;;;;3.78;81.65;95728.31;4906627;29;20452;-77
2021/03/14 09:26:31;;;;;;;3.53;1.80;;;;;;;4.18;80.04;95724.91;4901066;29;20530;-77
2021/03/14 09:29:06;;;;;;;6.87;2.00;;;;;;;3.64;78.67;95730.44;4902011;29;20476;-77
2021/03/14 09:31:41;;;;;;;4.70;1.80;;;;;;;4.17;80.33;95727.66;4910745;29;20024;-77
2021/03/14 09:34:19;;;;;;;7.70;2.50;;;;;;;3.90;80.20;95738.66;4910525;29;20068;-78
2021/03/14 09:36:51;;;;;;;31.23;9.40;;;;;;;3.84;79.49;95744.38;4919354;29;20463;-77
2021/03/14 09:39:24;;;;;;;10.77;2.80;;;;;;;3.86;78.71;95730.28;4900792;29;20032;-79
2021/03/14 09:42:04;;;;;;;10.17;4.10;;;;;;;3.60;79.15;95737.69;4898784;29;20044;-77
2021/03/14 09:45:05;;;;;;;11.73;3.37;;;;;;;3.58;78.44;95746.56;4905059;29;20574;-77
2021/03/14 09:47:32;;;;;;;9.23;3.97;;;;;;;3.53;78.86;95752.16;4904127;29;20460;-78
2021/03/14 09:50:08;;;;;;;10.70;2.60;;;;;;;3.42;78.26;95750.44;4921438;29;20711;-78
2021/03/14 09:52:38;;;;;;;8.77;1.80;;;;;;;3.39;78.86;95755.91;4904063;29;20467;-77
2021/03/14 09:55:05;;;;;;;4.40;1.67;;;;;;;3.61;78.10;95748.91;4902289;29;20443;-77
2021/03/14 09:57:31;;;;;;;8.07;1.90;;;;;;;3.57;79.21;95755.31;4918651;29;20052;-77
2021/03/14 10:00:29;;;;;;;6.90;1.60;;;;;;;3.48;79.08;95756.91;4905831;29;20467;-78
2021/03/14 10:03:05;;;;;;;4.10;1.90;;;;;;;3.49;77.26;95751.59;4920271;29;20476;-78
2021/03/14 10:06:05;;;;;;;5.43;1.57;;;;;;;3.51;76.75;95747.06;4924103;29;21143;-82
2021/03/14 10:08:54;;;;;;;8.27;1.53;;;;;;;3.61;75.41;95751.50;4940257;29;20044;-80
2021/03/14 10:11:20;;;;;;;11.57;2.97;;;;;;;3.93;76.00;95761.81;4910807;29;20449;-78
2021/03/14 10:14:00;;;;;;;5.20;1.70;;;;;;;3.65;75.08;95756.31;4930075;29;20026;-78
2021/03/14 10:16:28;;;;;;;6.77;1.60;;;;;;;3.66;74.67;95754.56;4906676;29;20474;-79
2021/03/14 10:19:01;;;;;;;7.30;1.40;;;;;;;4.20;73.17;95761.25;4907699;29;20826;-79
2021/03/14 10:21:31;;;;;;;5.70;1.20;;;;;;;4.27;74.87;95757.16;4911282;29;20529;-78
2021/03/14 10:24:24;;;;;;;4.30;2.27;;;;;;;4.24;74.84;95765.22;4934003;29;20043;-78
2021/03/14 10:27:03;;;;;;;4.30;1.20;;;;;;;4.08;74.72;95759.66;4924119;29;20517;-83
2021/03/14 10:29:42;;;;;;;5.63;1.13;;;;;;;3.81;75.00;95771.47;4904481;29;20038;-78
2021/03/14 10:32:46;;;;;;;5.20;1.27;;;;;;;3.86;75.20;95766.72;4929439;29;20055;-81
2021/03/14 10:35:18;;;;;;;6.20;1.23;;;;;;;3.53;74.66;95754.75;4893396;29;20035;-78
2021/03/14 10:37:44;;;;;;;4.93;0.90;;;;;;;3.36;74.86;95756.16;4924977;29;20035;-77
2021/03/14 10:40:25;;;;;;;4.57;1.50;;;;;;;3.37;76.15;95763.00;4926930;29;20028;-78
2021/03/14 10:43:33;;;;;;;5.23;1.53;;;;;;;3.29;76.30;95762.81;4932382;29;20043;-77
2021/03/14 10:46:05;;;;;;;6.87;2.23;;;;;;;3.51;76.60;95770.47;4928875;29;20744;-79
2021/03/14 10:48:31;;;;;;;3.30;1.30;;;;;;;4.19;73.51;95767.38;4900710;29;20047;-78
2021/03/14 10:51:07;;;;;;;5.30;1.10;;;;;;;4.25;73.53;95761.66;4901192;29;20490;-78
2021/03/14 10:53:39;;;;;;;5.03;1.23;;;;;;;4.55;72.30;95746.94;4899341;29;21501;-78
2021/03/14 10:56:19;;;;;;;8.20;1.43;;;;;;;4.74;71.06;95757.41;4914409;29;20035;-78
2021/03/14 10:58:49;;;;;;;5.03;1.30;;;;;;;4.61;70.27;95754.22;4908794;29;20055;-78
2021/03/14 11:01:40;;;;;;;4.63;1.10;;;;;;;4.21;71.70;95749.84;4920483;29;20199;-79
2021/03/14 11:04:07;;;;;;;7.03;1.23;;;;;;;4.07;71.53;95760.63;4914889;29;20036;-79
2021/03/14 11:06:36;;;;;;;4.67;1.20;;;;;;;4.12;72.82;95758.44;4937793;29;20061;-78
2021/03/14 11:09:10;;;;;;;8.90;1.60;;;;;;;3.93;71.99;95751.41;4927446;29;20065;-78
2021/03/14 11:11:51;;;;;;;7.43;3.45;;;;;;;4.04;72.40;95758.28;4900994;29;20039;-78
2021/03/14 11:14:40;;;;;;;25.13;11.47;;;;;;;4.11;73.08;95749.00;4909306;29;20052;-78
2021/03/14 11:17:22;;;;;;;11.67;5.90;;;;;;;4.15;71.14;95750.38;4889706;29;20065;-79
2021/03/14 11:20:07;;;;;;;29.73;14.13;;;;;;;3.96;73.11;95748.53;4917717;29;20054;-79
2021/03/14 11:22:40;;;;;;;10.23;4.07;;;;;;;4.24;73.02;95752.19;4911131;29;20621;-79
2021/03/14 11:25:09;;;;;;;8.03;2.97;;;;;;;3.88;72.70;95759.59;4917786;29;20035;-78
2021/03/14 11:27:35;;;;;;;29.90;13.07;;;;;;;3.66;73.87;95762.34;4914213;29;20055;-78
2021/03/14 11:30:01;;;;;;;33.90;17.03;;;;;;;3.64;74.98;95769.44;4914769;29;20111;-78
2021/03/14 11:32:27;;;;;;;9.40;3.40;;;;;;;4.22;73.56;95767.13;4898333;29;20058;-78
2021/03/14 11:35:11;;;;;;;16.70;7.73;;;;;;;4.17;74.17;95769.31;4926991;29;20058;-78
2021/03/14 11:37:59;;;;;;;11.20;6.87;;;;;;;3.92;72.93;95765.34;4916062;29;20511;-78
2021/03/14 11:40:56;;;;;;;7.67;3.60;;;;;;;3.90;74.57;95772.47;4914869;29;20083;-78
2021/03/14 11:43:41;;;;;;;8.80;4.17;;;;;;;4.00;76.04;95773.34;4902760;29;20067;-78
2021/03/14 11:46:23;;;;;;;12.53;7.77;;;;;;;4.35;72.16;95766.88;4940075;29;20035;-78
2021/03/14 11:48:56;;;;;;;8.77;5.80;;;;;;;5.46;69.99;95761.38;4928448;29;20023;-79
2021/03/14 11:51:24;;;;;;;7.07;2.10;;;;;;;5.23;70.14;95763.47;4915882;29;20068;-79
2021/03/14 11:53:54;;;;;;;7.10;2.83;;;;;;;4.87;71.74;95765.78;4916294;29;20043;-79
2021/03/14 11:56:21;;;;;;;11.93;8.23;;;;;;;4.43;72.15;95769.66;4919560;29;20031;-79
2021/03/14 11:58:52;;;;;;;5.80;1.40;;;;;;;4.40;70.12;95757.72;4905538;29;20027;-77